createdAt,value
2023-04-29T00:00:51.994Z,1379.00
2023-04-29T00:01:52.102Z,1386.00
2023-04-29T00:02:52.200Z,1383.00
2023-04-29T00:03:52.238Z,1374.00
2023-04-29T00:04:52.409Z,1363.00
2023-04-29T00:05:52.374Z,1343.00
2023-04-29T00:06:52.291Z,1353.00
2023-04-29T00:07:52.329Z,1367.00
2023-04-29T00:08:52.371Z,1381.00
2023-04-29T00:09:52.579Z,1392.00
2023-04-29T00:10:52.469Z,1375.00
2023-04-29T00:11:52.514Z,1384.00
2023-04-29T00:12:52.565Z,1379.00
2023-04-29T00:13:52.654Z,1378.00
2023-04-29T00:14:52.667Z,1368.00
2023-04-29T00:15:52.715Z,1366.00
2023-04-29T00:16:52.914Z,1364.00
2023-04-29T00:17:52.849Z,1361.00
2023-04-29T00:18:52.883Z,1368.00
2023-04-29T00:19:53.236Z,1352.00
2023-04-29T00:20:52.968Z,1354.00
2023-04-29T00:21:53.111Z,1347.00
2023-04-29T00:22:53.069Z,1353.00
2023-04-29T00:23:53.140Z,1357.00
2023-04-29T00:24:53.235Z,1343.00
2023-04-29T00:25:53.267Z,1354.00
2023-04-29T00:26:53.360Z,1340.00
2023-04-29T00:27:53.373Z,1331.00
2023-04-29T00:28:53.422Z,1331.00
2023-04-29T00:29:53.760Z,1332.00
2023-04-29T00:30:53.565Z,1325.00
2023-04-29T00:31:53.586Z,1316.00
2023-04-29T00:32:53.624Z,1324.00
2023-04-29T00:33:53.672Z,1310.00
2023-04-29T00:34:53.715Z,1300.00
2023-04-29T00:35:53.798Z,1284.00
2023-04-29T00:36:53.793Z,1276.00
2023-04-29T00:37:53.844Z,1293.00
2023-04-29T00:38:53.842Z,1281.00
2023-04-29T00:39:53.986Z,1280.00
2023-04-29T00:40:53.888Z,1263.00
2023-04-29T00:41:53.919Z,1268.00
2023-04-29T00:42:53.974Z,1262.00
2023-04-29T00:43:53.998Z,1273.00
2023-04-29T00:44:54.029Z,1269.00
2023-04-29T00:45:54.076Z,1281.00
2023-04-29T00:46:54.111Z,1272.00
2023-04-29T00:47:54.182Z,1281.00
2023-04-29T00:48:54.178Z,1279.00
2023-04-29T00:49:54.302Z,1281.00
2023-04-29T00:50:54.243Z,1273.00
2023-04-29T00:51:54.282Z,1280.00
2023-04-29T00:52:54.308Z,1272.00
2023-04-29T00:53:54.349Z,1280.00
2023-04-29T00:54:54.401Z,1256.00
2023-04-29T00:55:55.410Z,1271.00
2023-04-29T00:56:54.505Z,1255.00
2023-04-29T00:57:54.536Z,1244.00
2023-04-29T00:58:54.573Z,1235.00
2023-04-29T00:59:54.846Z,1234.00
2023-04-29T01:00:56.372Z,1239.00
2023-04-29T01:01:54.707Z,1237.00
2023-04-29T01:02:54.801Z,1235.00
2023-04-29T01:03:54.877Z,1229.00
2023-04-29T01:04:54.734Z,1233.00
2023-04-29T01:05:54.717Z,1220.00
2023-04-29T01:06:54.724Z,1229.00
2023-04-29T01:07:54.757Z,1221.00
2023-04-29T01:08:54.775Z,1226.00
2023-04-29T01:09:54.974Z,1212.00
2023-04-29T01:10:54.822Z,1222.00
2023-04-29T01:11:55.825Z,1218.00
2023-04-29T01:12:54.874Z,1223.00
2023-04-29T01:13:54.855Z,1216.00
2023-04-29T01:14:54.868Z,1227.00
2023-04-29T01:15:54.896Z,1231.00
2023-04-29T01:16:54.862Z,1223.00
2023-04-29T01:17:54.906Z,1231.00
2023-04-29T01:18:54.870Z,1235.00
2023-04-29T01:19:54.940Z,1242.00
2023-04-29T01:20:54.878Z,1242.00
2023-04-29T01:21:54.896Z,1244.00
2023-04-29T01:22:54.918Z,1256.00
2023-04-29T01:23:54.912Z,1252.00
2023-04-29T01:24:54.956Z,1255.00
2023-04-29T01:25:54.948Z,1259.00
2023-04-29T01:26:54.991Z,1262.00
2023-04-29T01:27:55.039Z,1261.00
2023-04-29T01:28:55.074Z,1261.00
2023-04-29T01:29:55.109Z,1271.00
2023-04-29T01:30:55.117Z,1266.00
2023-04-29T01:31:55.333Z,1252.00
2023-04-29T01:32:55.295Z,1253.00
2023-04-29T01:33:55.191Z,1258.00
2023-04-29T01:34:55.227Z,1258.00
2023-04-29T01:35:55.231Z,1247.00
2023-04-29T01:36:55.342Z,1252.00
2023-04-29T01:37:55.307Z,1265.00
2023-04-29T01:38:55.328Z,1264.00
2023-04-29T01:39:55.362Z,1236.00
2023-04-29T01:40:55.388Z,1261.00
2023-04-29T01:41:55.445Z,1262.00
2023-04-29T01:42:55.457Z,1263.00
2023-04-29T01:43:55.476Z,1267.00
2023-04-29T01:44:55.483Z,1260.00
2023-04-29T01:45:55.486Z,1259.00
2023-04-29T01:46:55.547Z,1258.00
2023-04-29T01:47:55.553Z,1263.00
2023-04-29T01:48:55.580Z,1265.00
2023-04-29T01:49:55.585Z,1263.00
2023-04-29T01:50:55.623Z,1267.00
2023-04-29T01:51:55.695Z,1265.00
2023-04-29T01:52:55.712Z,1268.00
2023-04-29T01:53:55.760Z,1268.00
2023-04-29T01:54:55.804Z,1265.00
2023-04-29T01:55:55.828Z,1264.00
2023-04-29T01:56:55.859Z,1267.00
2023-04-29T01:57:55.880Z,1272.00
2023-04-29T01:58:55.918Z,1269.00
2023-04-29T01:59:55.943Z,1245.00
2023-04-29T02:00:55.998Z,1248.00
2023-04-29T02:01:55.984Z,1233.00
2023-04-29T02:02:56.128Z,1233.00
2023-04-29T02:03:56.210Z,1235.00
2023-04-29T02:04:56.138Z,1240.00
2023-04-29T02:05:56.136Z,1240.00
2023-04-29T02:06:56.154Z,1238.00
2023-04-29T02:07:56.179Z,1244.00
2023-04-29T02:08:56.209Z,1230.00
2023-04-29T02:09:56.879Z,1227.00
2023-04-29T02:10:56.285Z,1222.00
2023-04-29T02:11:56.277Z,1223.00
2023-04-29T02:12:56.283Z,1214.00
2023-04-29T02:13:56.310Z,1228.00
2023-04-29T02:14:56.313Z,1222.00
2023-04-29T02:15:56.371Z,1213.00
2023-04-29T02:16:56.360Z,1205.00
2023-04-29T02:17:56.385Z,1208.00
2023-04-29T02:18:56.385Z,1195.00
2023-04-29T02:19:56.392Z,1216.00
2023-04-29T02:20:56.414Z,1202.00
2023-04-29T02:21:56.484Z,1202.00
2023-04-29T02:22:56.472Z,1210.00
2023-04-29T02:23:56.539Z,1209.00
2023-04-29T02:24:56.535Z,1191.00
2023-04-29T02:25:56.565Z,1190.00
2023-04-29T02:26:56.595Z,1182.00
2023-04-29T02:27:56.622Z,1194.00
2023-04-29T02:28:57.659Z,1180.00
2023-04-29T02:29:56.736Z,1209.00
2023-04-29T02:30:56.741Z,1198.00
2023-04-29T02:31:56.737Z,1200.00
2023-04-29T02:32:56.727Z,1201.00
2023-04-29T02:33:56.733Z,1181.00
2023-04-29T02:34:56.740Z,1177.00
2023-04-29T02:35:56.744Z,1183.00
2023-04-29T02:36:56.793Z,1196.00
2023-04-29T02:37:56.762Z,1189.00
2023-04-29T02:38:56.842Z,1184.00
2023-04-29T02:39:56.795Z,1198.00
2023-04-29T02:40:56.820Z,1196.00
2023-04-29T02:41:56.837Z,1193.00
2023-04-29T02:42:56.851Z,1193.00
2023-04-29T02:43:56.996Z,1183.00
2023-04-29T02:44:56.893Z,1198.00
2023-04-29T02:45:56.898Z,1199.00
2023-04-29T02:46:56.911Z,1194.00
2023-04-29T02:47:56.980Z,1193.00
2023-04-29T02:48:57.007Z,1188.00
2023-04-29T02:49:57.013Z,1182.00
2023-04-29T02:50:56.958Z,1163.00
2023-04-29T02:51:56.974Z,1162.00
2023-04-29T02:52:56.995Z,1159.00
2023-04-29T02:53:57.880Z,1171.00
2023-04-29T02:54:57.025Z,1162.00
2023-04-29T02:55:57.042Z,1163.00
2023-04-29T02:56:57.047Z,1144.00
2023-04-29T02:57:57.053Z,1160.00
2023-04-29T02:58:57.052Z,1174.00
2023-04-29T02:59:57.049Z,1173.00
2023-04-29T03:00:57.083Z,1171.00
2023-04-29T03:01:57.053Z,1175.00
2023-04-29T03:02:57.218Z,1170.00
2023-04-29T03:03:58.098Z,1174.00
2023-04-29T03:04:57.167Z,1173.00
2023-04-29T03:05:57.193Z,1176.00
2023-04-29T03:06:57.140Z,1172.00
2023-04-29T03:07:57.131Z,1162.00
2023-04-29T03:08:57.128Z,1155.00
2023-04-29T03:09:57.140Z,1164.00
2023-04-29T03:10:57.132Z,1167.00
2023-04-29T03:11:57.128Z,1165.00
2023-04-29T03:12:57.132Z,1162.00
2023-04-29T03:13:57.135Z,1164.00
2023-04-29T03:14:57.138Z,1174.00
2023-04-29T03:15:57.145Z,1169.00
2023-04-29T03:16:57.230Z,1166.00
2023-04-29T03:17:57.163Z,1171.00
2023-04-29T03:18:57.131Z,1164.00
2023-04-29T03:19:57.140Z,1171.00
2023-04-29T03:20:57.142Z,1166.00
2023-04-29T03:21:57.198Z,1162.00
2023-04-29T03:22:57.142Z,1173.00
2023-04-29T03:23:57.130Z,1172.00
2023-04-29T03:24:57.147Z,1164.00
2023-04-29T03:25:57.164Z,1168.00
2023-04-29T03:26:57.163Z,1161.00
2023-04-29T03:27:57.896Z,1163.00
2023-04-29T03:28:57.157Z,1167.00
2023-04-29T03:29:57.157Z,1172.00
2023-04-29T03:30:57.181Z,1167.00
2023-04-29T03:31:57.157Z,1170.00
2023-04-29T03:32:57.157Z,1169.00
2023-04-29T03:33:57.174Z,1166.00
2023-04-29T03:34:57.157Z,1150.00
2023-04-29T03:35:57.156Z,1156.00
2023-04-29T03:36:57.155Z,1155.00
2023-04-29T03:37:57.158Z,1156.00
2023-04-29T03:38:57.235Z,1157.00
2023-04-29T03:39:57.189Z,1143.00
2023-04-29T03:40:57.193Z,1146.00
2023-04-29T03:41:57.196Z,1142.00
2023-04-29T03:42:57.182Z,1149.00
2023-04-29T03:43:57.187Z,1152.00
2023-04-29T03:44:57.199Z,1148.00
2023-04-29T03:45:57.218Z,1142.00
2023-04-29T03:46:57.178Z,1149.00
2023-04-29T03:47:57.253Z,1144.00
2023-04-29T03:48:57.167Z,1143.00
2023-04-29T03:49:57.175Z,1133.00
2023-04-29T03:50:57.160Z,1138.00
2023-04-29T03:51:57.166Z,1138.00
2023-04-29T03:52:57.170Z,1140.00
2023-04-29T03:53:57.182Z,1134.00
2023-04-29T03:54:57.191Z,1133.00
2023-04-29T03:55:57.172Z,1126.00
2023-04-29T03:56:57.179Z,1122.00
2023-04-29T03:57:57.161Z,1126.00
2023-04-29T03:58:57.174Z,1132.00
2023-04-29T03:59:57.177Z,1121.00
2023-04-29T04:00:57.177Z,1125.00
2023-04-29T04:01:57.219Z,1121.00
2023-04-29T04:02:57.258Z,1124.00
2023-04-29T04:03:57.412Z,1126.00
2023-04-29T04:04:57.207Z,1119.00
2023-04-29T04:05:57.186Z,1125.00
2023-04-29T04:06:57.163Z,1101.00
2023-04-29T04:07:57.165Z,1128.00
2023-04-29T04:08:57.145Z,1114.00
2023-04-29T04:09:57.155Z,1119.00
2023-04-29T04:10:57.153Z,1113.00
2023-04-29T04:11:57.158Z,1118.00
2023-04-29T04:12:57.156Z,1116.00
2023-04-29T04:13:57.899Z,1107.00
2023-04-29T04:14:57.155Z,1114.00
2023-04-29T04:15:57.166Z,1108.00
2023-04-29T04:16:57.165Z,1109.00
2023-04-29T04:17:57.226Z,1101.00
2023-04-29T04:18:57.152Z,1108.00
2023-04-29T04:19:57.155Z,1114.00
2023-04-29T04:20:57.183Z,1102.00
2023-04-29T04:21:57.188Z,1105.00
2023-04-29T04:22:57.168Z,1109.00
2023-04-29T04:23:57.245Z,1101.00
2023-04-29T04:24:57.182Z,1111.00
2023-04-29T04:25:57.185Z,1096.00
2023-04-29T04:26:57.191Z,1102.00
2023-04-29T04:27:57.195Z,1102.00
2023-04-29T04:28:57.184Z,1098.00
2023-04-29T04:29:57.183Z,1092.00
2023-04-29T04:30:57.978Z,1085.00
2023-04-29T04:31:57.243Z,1088.00
2023-04-29T04:32:57.196Z,1091.00
2023-04-29T04:33:57.172Z,1095.00
2023-04-29T04:34:57.169Z,1100.00
2023-04-29T04:35:57.230Z,1098.00
2023-04-29T04:36:57.178Z,1086.00
2023-04-29T04:37:57.165Z,1089.00
2023-04-29T04:38:57.164Z,1088.00
2023-04-29T04:39:57.176Z,1091.00
2023-04-29T04:40:57.197Z,1089.00
2023-04-29T04:41:57.191Z,1094.00
2023-04-29T04:42:57.187Z,1093.00
2023-04-29T04:43:57.255Z,1087.00
2023-04-29T04:44:57.190Z,1094.00
2023-04-29T04:45:57.379Z,1084.00
2023-04-29T04:46:57.200Z,1090.00
2023-04-29T04:47:57.245Z,1085.00
2023-04-29T04:48:57.323Z,1086.00
2023-04-29T04:49:57.208Z,1083.00
2023-04-29T04:50:57.212Z,1079.00
2023-04-29T04:51:57.193Z,1083.00
2023-04-29T04:52:57.203Z,1074.00
2023-04-29T04:53:57.203Z,1074.00
2023-04-29T04:54:57.270Z,1075.00
2023-04-29T04:55:57.213Z,1078.00
2023-04-29T04:56:57.214Z,1059.00
2023-04-29T04:57:57.206Z,1074.00
2023-04-29T04:58:57.206Z,1069.00
2023-04-29T04:59:57.929Z,1071.00
2023-04-29T05:00:57.265Z,1077.00
2023-04-29T05:01:57.246Z,1064.00
2023-04-29T05:02:58.041Z,1066.00
2023-04-29T05:03:57.288Z,1063.00
2023-04-29T05:04:57.200Z,1072.00
2023-04-29T05:05:57.218Z,1069.00
2023-04-29T05:06:57.209Z,1068.00
2023-04-29T05:07:57.199Z,1067.00
2023-04-29T05:08:57.216Z,1063.00
2023-04-29T05:09:57.205Z,1065.00
2023-04-29T05:10:57.237Z,1059.00
2023-04-29T05:11:57.210Z,1057.00
2023-04-29T05:12:57.206Z,1049.00
2023-04-29T05:13:57.199Z,1051.00
2023-04-29T05:14:57.205Z,1050.00
2023-04-29T05:15:57.207Z,1044.00
2023-04-29T05:16:57.333Z,1047.00
2023-04-29T05:17:57.235Z,1052.00
2023-04-29T05:18:57.192Z,1049.00
2023-04-29T05:19:57.212Z,1053.00
2023-04-29T05:20:57.188Z,1049.00
2023-04-29T05:21:57.184Z,1043.00
2023-04-29T05:22:57.181Z,1039.00
2023-04-29T05:23:57.261Z,1047.00
2023-04-29T05:24:57.198Z,1051.00
2023-04-29T05:25:57.247Z,1052.00
2023-04-29T05:26:57.202Z,1041.00
2023-04-29T05:27:57.193Z,1043.00
2023-04-29T05:28:57.195Z,1046.00
2023-04-29T05:29:57.231Z,1041.00
2023-04-29T05:30:57.235Z,1031.00
2023-04-29T05:31:57.941Z,1035.00
2023-04-29T05:32:57.244Z,1033.00
2023-04-29T05:33:57.239Z,1022.00
2023-04-29T05:34:57.206Z,1043.00
2023-04-29T05:35:57.219Z,1036.00
2023-04-29T05:36:57.276Z,1046.00
2023-04-29T05:37:57.251Z,1037.00
2023-04-29T05:38:57.255Z,1033.00
2023-04-29T05:39:57.279Z,1035.00
2023-04-29T05:40:57.302Z,1037.00
2023-04-29T05:41:57.324Z,1028.00
2023-04-29T05:42:57.309Z,1030.00
2023-04-29T05:43:57.315Z,1022.00
2023-04-29T05:44:57.345Z,1030.00
2023-04-29T05:45:57.451Z,1025.00
2023-04-29T05:46:57.399Z,1030.00
2023-04-29T05:47:57.444Z,1027.00
2023-04-29T05:48:57.402Z,1025.00
2023-04-29T05:49:57.400Z,1028.00
2023-04-29T05:50:57.410Z,1018.00
2023-04-29T05:51:57.437Z,1028.00
2023-04-29T05:52:57.437Z,1030.00
2023-04-29T05:53:57.442Z,1029.00
2023-04-29T05:54:57.556Z,1020.00
2023-04-29T05:55:57.459Z,1026.00
2023-04-29T05:56:57.448Z,1025.00
2023-04-29T05:57:57.451Z,1024.00
2023-04-29T05:58:57.470Z,1023.00
2023-04-29T05:59:57.494Z,1009.00
2023-04-29T06:00:59.828Z,1017.00
2023-04-29T06:01:57.662Z,1006.00
2023-04-29T06:02:59.135Z,1016.00
2023-04-29T06:03:57.880Z,1013.00
2023-04-29T06:04:58.023Z,1002.00
2023-04-29T06:05:58.070Z,1018.00
2023-04-29T06:06:57.877Z,1023.00
2023-04-29T06:07:57.940Z,1014.00
2023-04-29T06:08:58.001Z,1015.00
2023-04-29T06:09:58.050Z,1024.00
2023-04-29T06:10:58.108Z,1019.00
2023-04-29T06:11:58.178Z,1021.00
2023-04-29T06:12:58.237Z,1033.00
2023-04-29T06:13:58.287Z,1019.00
2023-04-29T06:14:58.358Z,1017.00
2023-04-29T06:15:58.432Z,1009.00
2023-04-29T06:16:58.459Z,1011.00
2023-04-29T06:17:58.631Z,1022.00
2023-04-29T06:18:58.629Z,1014.00
2023-04-29T06:19:58.614Z,1023.00
2023-04-29T06:20:58.673Z,1021.00
2023-04-29T06:21:58.795Z,1007.00
2023-04-29T06:22:58.776Z,1016.00
2023-04-29T06:23:58.872Z,1024.00
2023-04-29T06:24:58.857Z,1001.00
2023-04-29T06:25:58.895Z,1004.00
2023-04-29T06:26:58.947Z,1000.00
2023-04-29T06:27:58.976Z,996.00
2023-04-29T06:28:58.994Z,1002.00
2023-04-29T06:29:59.054Z,1001.00
2023-04-29T06:30:59.071Z,986.00
2023-04-29T06:31:59.127Z,991.00
2023-04-29T06:32:59.144Z,981.00
2023-04-29T06:33:59.129Z,994.00
2023-04-29T06:34:59.143Z,980.00
2023-04-29T06:35:59.168Z,977.00
2023-04-29T06:36:59.276Z,973.00
2023-04-29T06:37:59.241Z,983.00
2023-04-29T06:38:59.241Z,973.00
2023-04-29T06:39:59.246Z,965.00
2023-04-29T06:40:59.252Z,966.00
2023-04-29T06:41:59.252Z,960.00
2023-04-29T06:42:59.258Z,957.00
2023-04-29T06:43:59.300Z,952.00
2023-04-29T06:44:59.323Z,947.00
2023-04-29T06:45:59.379Z,941.00
2023-04-29T06:46:59.462Z,953.00
2023-04-29T06:47:59.467Z,956.00
2023-04-29T06:48:59.512Z,931.00
2023-04-29T06:49:59.557Z,954.00
2023-04-29T06:50:59.989Z,956.00
2023-04-29T06:51:59.701Z,950.00
2023-04-29T06:52:59.744Z,952.00
2023-04-29T06:53:59.826Z,929.00
2023-04-29T06:54:59.826Z,929.00
2023-04-29T06:55:59.871Z,942.00
2023-04-29T06:56:59.904Z,943.00
2023-04-29T06:57:59.939Z,919.00
2023-04-29T06:58:59.985Z,922.00
2023-04-29T07:00:00.023Z,928.00
2023-04-29T07:01:00.090Z,896.00
2023-04-29T07:02:00.092Z,901.00
2023-04-29T07:03:00.170Z,900.00
2023-04-29T07:04:00.501Z,922.00
2023-04-29T07:05:00.162Z,918.00
2023-04-29T07:06:00.178Z,924.00
2023-04-29T07:07:00.202Z,926.00
2023-04-29T07:08:00.234Z,936.00
2023-04-29T07:09:00.248Z,928.00
2023-04-29T07:10:00.262Z,909.00
2023-04-29T07:11:00.343Z,909.00
2023-04-29T07:12:00.310Z,891.00
2023-04-29T07:13:00.310Z,877.00
2023-04-29T07:14:00.318Z,895.00
2023-04-29T07:15:00.308Z,877.00
2023-04-29T07:16:00.341Z,873.00
2023-04-29T07:17:00.447Z,876.00
2023-04-29T07:18:00.331Z,865.00
2023-04-29T07:19:00.302Z,874.00
2023-04-29T07:20:00.314Z,866.00
2023-04-29T07:21:00.328Z,871.00
2023-04-29T07:22:00.343Z,859.00
2023-04-29T07:23:00.451Z,857.00
2023-04-29T07:24:00.433Z,868.00
2023-04-29T07:25:00.487Z,868.00
2023-04-29T07:26:00.529Z,874.00
2023-04-29T07:27:00.589Z,861.00
2023-04-29T07:28:00.666Z,885.00
2023-04-29T07:29:00.713Z,869.00
2023-04-29T07:30:00.788Z,900.00
2023-04-29T07:31:00.842Z,892.00
2023-04-29T07:32:00.850Z,894.00
2023-04-29T07:33:01.000Z,893.00
2023-04-29T07:34:00.941Z,889.00
2023-04-29T07:35:00.972Z,878.00
2023-04-29T07:36:01.027Z,887.00
2023-04-29T07:37:01.038Z,887.00
2023-04-29T07:38:01.079Z,892.00
2023-04-29T07:39:01.109Z,914.00
2023-04-29T07:40:01.111Z,917.00
2023-04-29T07:41:01.198Z,908.00
2023-04-29T07:42:01.149Z,921.00
2023-04-29T07:43:01.177Z,933.00
2023-04-29T07:44:01.184Z,940.00
2023-04-29T07:45:01.192Z,945.00
2023-04-29T07:46:01.251Z,951.00
2023-04-29T07:47:01.204Z,958.00
2023-04-29T07:48:01.233Z,963.00
2023-04-29T07:49:01.229Z,964.00
2023-04-29T07:50:01.214Z,953.00
2023-04-29T07:51:01.240Z,957.00
2023-04-29T07:52:01.230Z,956.00
2023-04-29T07:53:01.242Z,954.00
2023-04-29T07:54:01.258Z,947.00
2023-04-29T07:55:01.254Z,957.00
2023-04-29T07:56:01.267Z,968.00
2023-04-29T07:57:01.271Z,959.00
2023-04-29T07:58:01.281Z,966.00
2023-04-29T07:59:01.286Z,953.00
2023-04-29T08:00:01.290Z,941.00
2023-04-29T08:01:01.288Z,950.00
2023-04-29T08:02:01.273Z,958.00
2023-04-29T08:03:01.455Z,953.00
2023-04-29T08:04:01.462Z,947.00
2023-04-29T08:05:01.953Z,969.00
2023-04-29T08:06:01.342Z,970.00
2023-04-29T08:07:01.295Z,958.00
2023-04-29T08:08:01.324Z,955.00
2023-04-29T08:09:02.143Z,958.00
2023-04-29T08:10:01.384Z,945.00
2023-04-29T08:11:01.402Z,962.00
2023-04-29T08:12:01.437Z,956.00
2023-04-29T08:13:01.497Z,954.00
2023-04-29T08:14:01.537Z,948.00
2023-04-29T08:15:01.602Z,958.00
2023-04-29T08:16:01.689Z,977.00
2023-04-29T08:17:01.711Z,982.00
2023-04-29T08:18:01.932Z,984.00
2023-04-29T08:19:01.834Z,985.00
2023-04-29T08:20:01.903Z,981.00
2023-04-29T08:21:01.951Z,979.00
2023-04-29T08:22:02.007Z,982.00
2023-04-29T08:23:02.076Z,978.00
2023-04-29T08:24:02.102Z,974.00
2023-04-29T08:25:02.167Z,984.00
2023-04-29T08:26:02.209Z,990.00
2023-04-29T08:27:02.238Z,987.00
2023-04-29T08:28:02.996Z,973.00
2023-04-29T08:29:02.320Z,990.00
2023-04-29T08:30:02.368Z,990.00
2023-04-29T08:31:02.410Z,998.00
2023-04-29T08:32:02.538Z,999.00
2023-04-29T08:33:02.553Z,1002.00
2023-04-29T08:34:02.501Z,1014.00
2023-04-29T08:35:02.545Z,1022.00
2023-04-29T08:36:02.602Z,1030.00
2023-04-29T08:37:02.623Z,1039.00
2023-04-29T08:38:02.670Z,1035.00
2023-04-29T08:39:02.689Z,1030.00
2023-04-29T08:40:02.737Z,1031.00
2023-04-29T08:41:02.766Z,1035.00
2023-04-29T08:42:02.794Z,1040.00
2023-04-29T08:43:02.837Z,1043.00
2023-04-29T08:44:02.867Z,1033.00
2023-04-29T08:45:02.920Z,1043.00
2023-04-29T08:46:02.972Z,1039.00
2023-04-29T08:47:02.983Z,1050.00
2023-04-29T08:48:03.095Z,1038.00
2023-04-29T08:49:03.032Z,1049.00
2023-04-29T08:50:03.080Z,1055.00
2023-04-29T08:51:03.306Z,1053.00
2023-04-29T08:52:03.123Z,1050.00
2023-04-29T08:53:03.162Z,1056.00
2023-04-29T08:54:03.185Z,1051.00
2023-04-29T08:55:04.010Z,1055.00
2023-04-29T08:56:03.270Z,1060.00
2023-04-29T08:57:03.261Z,1065.00
2023-04-29T08:58:03.281Z,1065.00
2023-04-29T08:59:03.297Z,1070.00
2023-04-29T09:00:03.311Z,1070.00
2023-04-29T09:01:03.407Z,1065.00
2023-04-29T09:02:03.346Z,1068.00
2023-04-29T09:03:03.440Z,1069.00
2023-04-29T09:04:03.459Z,1075.00
2023-04-29T09:05:03.498Z,1073.00
2023-04-29T09:06:03.448Z,1069.00
2023-04-29T09:07:03.436Z,1071.00
2023-04-29T09:08:03.519Z,1072.00
2023-04-29T09:09:03.520Z,1085.00
2023-04-29T09:10:03.630Z,1077.00
2023-04-29T09:11:03.637Z,1072.00
2023-04-29T09:12:03.628Z,1072.00
2023-04-29T09:13:03.638Z,1069.00
2023-04-29T09:14:03.645Z,1069.00
2023-04-29T09:15:03.655Z,1078.00
2023-04-29T09:16:04.071Z,1083.00
2023-04-29T09:17:03.864Z,1090.00
2023-04-29T09:18:04.049Z,1088.00
2023-04-29T09:19:03.990Z,1091.00
2023-04-29T09:20:03.990Z,1084.00
2023-04-29T09:21:03.997Z,1089.00
2023-04-29T09:22:04.008Z,1084.00
2023-04-29T09:23:04.024Z,1075.00
2023-04-29T09:24:04.025Z,1087.00
2023-04-29T09:25:04.031Z,1079.00
2023-04-29T09:26:04.047Z,1089.00
2023-04-29T09:27:04.063Z,1074.00
2023-04-29T09:28:04.097Z,1075.00
2023-04-29T09:29:04.120Z,1075.00
2023-04-29T09:30:04.155Z,1078.00
2023-04-29T09:31:04.210Z,1067.00
2023-04-29T09:32:04.317Z,1068.00
2023-04-29T09:33:04.308Z,1063.00
2023-04-29T09:34:04.303Z,1061.00
2023-04-29T09:35:04.322Z,1057.00
2023-04-29T09:36:04.356Z,1058.00
2023-04-29T09:37:04.397Z,1062.00
2023-04-29T09:38:04.439Z,1066.00
2023-04-29T09:39:04.476Z,1057.00
2023-04-29T09:40:04.525Z,1056.00
2023-04-29T09:41:05.040Z,1065.00
2023-04-29T09:42:04.644Z,1056.00
2023-04-29T09:43:04.692Z,1058.00
2023-04-29T09:44:04.809Z,1047.00
2023-04-29T09:45:04.788Z,1043.00
2023-04-29T09:46:04.939Z,1058.00
2023-04-29T09:47:04.891Z,1054.00
2023-04-29T09:48:04.960Z,1059.00
2023-04-29T09:49:04.973Z,1046.00
2023-04-29T09:50:05.035Z,1053.00
2023-04-29T09:51:05.084Z,1050.00
2023-04-29T09:52:05.137Z,1049.00
2023-04-29T09:53:05.215Z,1051.00
2023-04-29T09:54:05.257Z,1057.00
2023-04-29T09:55:05.313Z,1038.00
2023-04-29T09:56:05.366Z,1057.00
2023-04-29T09:57:05.421Z,1059.00
2023-04-29T09:58:05.558Z,1035.00
2023-04-29T09:59:05.548Z,1048.00
2023-04-29T10:00:05.601Z,1047.00
2023-04-29T10:01:05.712Z,1042.00
2023-04-29T10:02:05.787Z,1057.00
2023-04-29T10:03:05.939Z,1048.00
2023-04-29T10:04:05.858Z,1047.00
2023-04-29T10:05:05.899Z,1039.00
2023-04-29T10:06:05.958Z,1042.00
2023-04-29T10:07:06.006Z,1031.00
2023-04-29T10:08:06.072Z,1058.00
2023-04-29T10:09:06.116Z,1039.00
2023-04-29T10:10:06.186Z,1040.00
2023-04-29T10:11:06.338Z,1041.00
2023-04-29T10:12:06.299Z,1046.00
2023-04-29T10:13:06.369Z,1028.00
2023-04-29T10:14:06.429Z,1034.00
2023-04-29T10:15:06.487Z,1036.00
2023-04-29T10:16:08.242Z,1044.00
2023-04-29T10:17:06.601Z,1039.00
2023-04-29T10:18:07.585Z,1034.00
2023-04-29T10:19:06.701Z,1034.00
2023-04-29T10:20:06.751Z,1037.00
2023-04-29T10:21:06.817Z,1048.00
2023-04-29T10:22:06.843Z,1036.00
2023-04-29T10:23:06.846Z,1031.00
2023-04-29T10:24:06.884Z,1035.00
2023-04-29T10:25:06.872Z,1029.00
2023-04-29T10:26:06.876Z,1016.00
2023-04-29T10:27:06.891Z,1018.00
2023-04-29T10:28:06.875Z,1027.00
2023-04-29T10:29:06.871Z,1024.00
2023-04-29T10:30:06.878Z,1020.00
2023-04-29T10:31:06.927Z,1012.00
2023-04-29T10:32:06.886Z,1009.00
2023-04-29T10:33:06.906Z,1017.00
2023-04-29T10:34:06.887Z,1017.00
2023-04-29T10:35:06.873Z,1015.00
2023-04-29T10:36:06.885Z,1008.00
2023-04-29T10:37:06.896Z,1013.00
2023-04-29T10:38:06.887Z,1002.00
2023-04-29T10:39:06.900Z,1008.00
2023-04-29T10:40:06.881Z,1021.00
2023-04-29T10:41:06.880Z,1018.00
2023-04-29T10:42:06.923Z,1012.00
2023-04-29T10:43:06.892Z,1008.00
2023-04-29T10:44:06.893Z,1015.00
2023-04-29T10:45:06.908Z,1014.00
2023-04-29T10:46:06.931Z,999.00
2023-04-29T10:47:06.950Z,1007.00
2023-04-29T10:48:06.901Z,1003.00
2023-04-29T10:49:07.072Z,1015.00
2023-04-29T10:50:06.886Z,995.00
2023-04-29T10:51:06.930Z,1012.00
2023-04-29T10:52:06.900Z,1006.00
2023-04-29T10:53:06.973Z,1007.00
2023-04-29T10:54:06.917Z,998.00
2023-04-29T10:55:06.909Z,1006.00
2023-04-29T10:56:06.935Z,1012.00
2023-04-29T10:57:06.996Z,986.00
2023-04-29T10:58:06.952Z,984.00
2023-04-29T10:59:06.961Z,998.00
2023-04-29T11:00:06.955Z,994.00
2023-04-29T11:01:07.041Z,979.00
2023-04-29T11:02:06.983Z,995.00
2023-04-29T11:03:07.048Z,1003.00
2023-04-29T11:04:07.175Z,990.00
2023-04-29T11:05:07.018Z,976.00
2023-04-29T11:06:07.078Z,979.00
2023-04-29T11:07:07.034Z,999.00
2023-04-29T11:08:07.033Z,983.00
2023-04-29T11:09:07.040Z,989.00
2023-04-29T11:10:07.046Z,980.00
2023-04-29T11:11:07.074Z,981.00
2023-04-29T11:12:07.067Z,981.00
2023-04-29T11:13:07.081Z,986.00
2023-04-29T11:14:07.091Z,970.00
2023-04-29T11:15:07.102Z,964.00
2023-04-29T11:16:07.172Z,982.00
2023-04-29T11:17:07.110Z,979.00
2023-04-29T11:18:07.164Z,978.00
2023-04-29T11:19:07.119Z,960.00
2023-04-29T11:20:07.139Z,976.00
2023-04-29T11:21:07.156Z,967.00
2023-04-29T11:22:07.162Z,971.00
2023-04-29T11:23:07.178Z,975.00
2023-04-29T11:24:07.168Z,958.00
2023-04-29T11:25:07.318Z,946.00
2023-04-29T11:26:07.178Z,975.00
2023-04-29T11:27:07.191Z,949.00
2023-04-29T11:28:07.257Z,951.00
2023-04-29T11:29:07.211Z,968.00
2023-04-29T11:30:07.206Z,957.00
2023-04-29T11:31:07.303Z,953.00
2023-04-29T11:32:07.259Z,942.00
2023-04-29T11:33:07.307Z,929.00
2023-04-29T11:34:07.266Z,940.00
2023-04-29T11:35:07.245Z,948.00
2023-04-29T11:36:07.263Z,942.00
2023-04-29T11:37:07.327Z,948.00
2023-04-29T11:38:07.281Z,927.00
2023-04-29T11:39:07.296Z,922.00
2023-04-29T11:40:07.301Z,926.00
2023-04-29T11:41:07.311Z,930.00
2023-04-29T11:42:07.326Z,927.00
2023-04-29T11:43:07.360Z,910.00
2023-04-29T11:44:07.356Z,919.00
2023-04-29T11:45:07.361Z,917.00
2023-04-29T11:46:07.425Z,916.00
2023-04-29T11:47:07.388Z,908.00
2023-04-29T11:48:07.463Z,909.00
2023-04-29T11:49:07.515Z,896.00
2023-04-29T11:50:07.465Z,917.00
2023-04-29T11:51:07.468Z,919.00
2023-04-29T11:52:07.484Z,911.00
2023-04-29T11:53:07.493Z,896.00
2023-04-29T11:54:08.241Z,895.00
2023-04-29T11:55:07.524Z,892.00
2023-04-29T11:56:07.546Z,881.00
2023-04-29T11:57:07.561Z,898.00
2023-04-29T11:58:07.570Z,882.00
2023-04-29T11:59:07.593Z,890.00
2023-04-29T12:00:09.238Z,886.00
2023-04-29T12:01:07.627Z,890.00
2023-04-29T12:02:07.775Z,867.00
2023-04-29T12:03:07.858Z,873.00
2023-04-29T12:04:07.799Z,879.00
2023-04-29T12:05:07.848Z,868.00
2023-04-29T12:06:08.508Z,875.00
2023-04-29T12:07:07.722Z,863.00
2023-04-29T12:08:08.599Z,865.00
2023-04-29T12:09:07.780Z,870.00
2023-04-29T12:10:07.799Z,866.00
2023-04-29T12:11:07.828Z,869.00
2023-04-29T12:12:08.179Z,859.00